createdAt,value
2018-04-10T00:01:08.093Z,17.17
2018-04-10T00:03:35.759Z,17.23
2018-04-10T00:06:03.377Z,16.17
2018-04-10T00:08:30.985Z,15.47
2018-04-10T00:10:58.637Z,17.13
2018-04-10T00:13:26.246Z,17.13
2018-04-10T00:15:53.906Z,14.10
2018-04-10T00:18:21.549Z,16.17
2018-04-10T00:20:49.201Z,15.00
2018-04-10T00:23:16.870Z,18.70
2018-04-10T00:25:44.520Z,15.73
2018-04-10T00:28:12.166Z,15.07
2018-04-10T00:30:39.833Z,14.40
2018-04-10T00:33:07.457Z,14.90
2018-04-10T00:35:35.155Z,14.10
2018-04-10T00:38:02.766Z,15.03
2018-04-10T00:40:30.437Z,13.30
2018-04-10T00:42:58.053Z,15.90
2018-04-10T00:45:27.657Z,14.10
2018-04-10T00:47:55.310Z,14.40
2018-04-10T00:50:22.982Z,12.93
2018-04-10T00:52:50.683Z,13.30
2018-04-10T00:55:18.305Z,15.87
2018-04-10T00:57:45.969Z,12.37
2018-04-10T01:00:13.618Z,15.23
2018-04-10T01:02:41.265Z,14.30
2018-04-10T01:05:08.899Z,13.63
2018-04-10T01:07:36.550Z,14.20
2018-04-10T01:10:04.179Z,17.03
2018-04-10T01:12:31.850Z,14.40
2018-04-10T01:14:59.510Z,15.20
2018-04-10T01:17:27.192Z,16.57
2018-04-10T01:19:54.814Z,20.50
2018-04-10T01:22:22.483Z,14.47
2018-04-10T01:24:50.118Z,13.27
2018-04-10T01:27:17.777Z,14.50
2018-04-10T01:29:45.410Z,17.30
2018-04-10T01:32:13.066Z,14.33
2018-04-10T01:34:40.688Z,17.03
2018-04-10T01:37:08.354Z,16.13
2018-04-10T01:39:35.984Z,15.30
2018-04-10T01:42:03.650Z,16.57
2018-04-10T01:44:31.269Z,15.93
2018-04-10T01:46:58.904Z,15.17
2018-04-10T01:49:26.570Z,15.23
2018-04-10T01:51:54.181Z,16.40
2018-04-10T01:54:21.851Z,15.93
2018-04-10T01:56:49.459Z,15.23
2018-04-10T01:59:17.108Z,16.90
2018-04-10T02:01:44.749Z,17.37
2018-04-10T02:04:12.402Z,15.30
2018-04-10T02:06:40.018Z,16.50
2018-04-10T02:09:07.730Z,16.87
2018-04-10T02:11:35.350Z,16.33
2018-04-10T02:14:03.039Z,18.80
2018-04-10T02:16:30.694Z,16.43
2018-04-10T02:18:58.357Z,16.90
2018-04-10T02:21:25.977Z,13.90
2018-04-10T02:23:53.682Z,16.17
2018-04-10T02:26:21.321Z,13.90
2018-04-10T02:28:48.994Z,16.40
2018-04-10T02:31:16.678Z,15.20
2018-04-10T02:33:44.297Z,14.53
2018-04-10T02:36:11.961Z,19.87
2018-04-10T02:38:39.626Z,14.83
2018-04-10T02:41:07.260Z,15.47
2018-04-10T02:43:34.939Z,14.83
2018-04-10T02:46:02.578Z,14.80
2018-04-10T02:48:30.282Z,14.57
2018-04-10T02:50:57.938Z,14.40
2018-04-10T02:53:25.598Z,15.10
2018-04-10T02:55:53.222Z,16.13
2018-04-10T02:58:20.918Z,13.43
2018-04-10T03:00:48.546Z,15.80
2018-04-10T03:03:16.227Z,14.47
2018-04-10T03:05:43.870Z,14.77
2018-04-10T03:08:11.545Z,15.40
2018-04-10T03:10:39.167Z,18.93
2018-04-10T03:13:06.841Z,14.53
2018-04-10T03:15:34.480Z,16.03
2018-04-10T03:18:02.129Z,14.43
2018-04-10T03:20:29.745Z,18.13
2018-04-10T03:22:57.431Z,15.43
2018-04-10T03:25:25.090Z,15.07
2018-04-10T03:27:52.794Z,14.37
2018-04-10T03:30:20.426Z,14.50
2018-04-10T03:32:48.093Z,15.40
2018-04-10T03:35:15.747Z,17.30
2018-04-10T03:37:43.410Z,14.43
2018-04-10T03:40:11.074Z,16.83
2018-04-10T03:42:38.694Z,16.63
2018-04-10T03:45:06.378Z,18.57
2018-04-10T03:47:33.982Z,17.83
2018-04-10T03:50:01.675Z,14.67
2018-04-10T03:52:29.339Z,14.43
2018-04-10T03:54:56.991Z,15.30
2018-04-10T03:57:24.618Z,19.23
2018-04-10T03:59:52.282Z,16.50
2018-04-10T04:02:19.899Z,16.83
2018-04-10T04:04:47.578Z,17.67
2018-04-10T04:07:15.202Z,18.30
2018-04-10T04:09:42.856Z,16.60
2018-04-10T04:12:10.502Z,20.03
2018-04-10T04:14:38.159Z,16.97
2018-04-10T04:17:17.557Z,21.13
2018-04-10T04:19:56.914Z,17.90
2018-04-10T04:22:36.298Z,17.17
2018-04-10T04:25:03.955Z,17.70
2018-04-10T04:27:31.588Z,17.30
2018-04-10T04:29:59.310Z,15.33
2018-04-10T04:32:26.958Z,20.60
2018-04-10T04:34:54.617Z,16.40
2018-04-10T04:37:22.238Z,19.40
2018-04-10T04:39:49.912Z,19.10
2018-04-10T04:42:17.582Z,18.27
2018-04-10T04:44:45.250Z,17.60
2018-04-10T04:47:12.871Z,20.37
2018-04-10T04:49:40.541Z,18.60
2018-04-10T04:52:08.177Z,23.00
2018-04-10T04:54:35.823Z,16.17
2018-04-10T04:57:03.437Z,22.60
2018-04-10T04:59:31.093Z,17.73
2018-04-10T05:01:58.730Z,15.67
2018-04-10T05:04:26.396Z,15.23
2018-04-10T05:06:54.037Z,15.97
2018-04-10T05:09:21.698Z,16.97
2018-04-10T05:11:49.316Z,15.40
2018-04-10T05:14:16.967Z,17.70
2018-04-10T05:16:44.590Z,17.17
2018-04-10T05:19:12.270Z,17.77
2018-04-10T05:21:39.906Z,15.70
2018-04-10T05:24:07.565Z,16.13
2018-04-10T05:26:35.195Z,17.63
2018-04-10T05:29:02.845Z,16.60
2018-04-10T05:31:30.486Z,17.10
2018-04-10T05:33:58.155Z,20.93
2018-04-10T05:36:25.762Z,18.00
2018-04-10T05:38:53.419Z,15.47
2018-04-10T05:41:21.050Z,17.13
2018-04-10T05:43:48.720Z,19.13
2018-04-10T05:46:16.341Z,19.37
2018-04-10T05:48:44.029Z,17.60
2018-04-10T05:51:11.645Z,18.23
2018-04-10T05:53:39.354Z,19.03
2018-04-10T05:56:06.978Z,17.67
2018-04-10T05:58:34.599Z,18.60
2018-04-10T06:01:02.337Z,20.43
2018-04-10T06:03:29.945Z,17.97
2018-04-10T06:05:57.611Z,21.93
2018-04-10T06:08:25.275Z,24.30
2018-04-10T06:10:52.974Z,20.33
2018-04-10T06:13:20.594Z,16.33
2018-04-10T06:15:48.304Z,20.77
2018-04-10T06:18:15.932Z,20.40
2018-04-10T06:20:43.602Z,18.00
2018-04-10T06:23:11.254Z,20.07
2018-04-10T06:25:38.918Z,18.17
2018-04-10T06:28:06.549Z,19.10
2018-04-10T06:30:34.202Z,19.97
2018-04-10T06:33:01.831Z,17.90
2018-04-10T06:35:29.541Z,15.50
2018-04-10T06:37:57.202Z,14.90
2018-04-10T06:40:24.858Z,17.47
2018-04-10T06:42:52.490Z,15.73
2018-04-10T06:45:20.282Z,15.10
2018-04-10T06:47:47.911Z,16.33
2018-04-10T06:50:15.575Z,15.27
2018-04-10T06:52:43.221Z,15.93
2018-04-10T06:55:10.858Z,17.03
2018-04-10T06:57:38.529Z,15.07
2018-04-10T07:00:06.138Z,14.53
2018-04-10T07:02:33.815Z,16.07
2018-04-10T07:05:01.586Z,15.20
2018-04-10T07:07:29.272Z,15.90
2018-04-10T07:09:56.919Z,15.57
2018-04-10T07:12:24.562Z,19.07
2018-04-10T07:14:52.195Z,13.83
2018-04-10T07:17:19.851Z,20.80
2018-04-10T07:19:47.461Z,13.50
2018-04-10T07:22:15.169Z,13.20
2018-04-10T07:24:42.794Z,15.83
2018-04-10T07:27:10.479Z,13.90
2018-04-10T07:29:38.120Z,12.90
2018-04-10T07:32:05.782Z,13.57
2018-04-10T07:34:33.411Z,13.50
2018-04-10T07:37:01.077Z,13.90
2018-04-10T07:39:28.710Z,12.80
2018-04-10T07:41:56.323Z,12.77
2018-04-10T07:44:24.000Z,13.43
2018-04-10T07:46:51.621Z,13.43
2018-04-10T07:49:19.301Z,13.40
2018-04-10T07:51:46.931Z,13.20
2018-04-10T07:54:14.605Z,14.80
2018-04-10T07:56:42.225Z,14.53
2018-04-10T07:59:09.887Z,14.33
2018-04-10T08:01:37.557Z,13.30
2018-04-10T08:04:05.219Z,13.37
2018-04-10T08:06:33.212Z,14.13
2018-04-10T08:09:00.890Z,13.40
2018-04-10T08:11:28.533Z,15.10
2018-04-10T08:13:56.242Z,13.33
2018-04-10T08:16:23.890Z,14.53
2018-04-10T08:18:51.538Z,13.77
2018-04-10T08:21:19.494Z,14.27
2018-04-10T08:23:47.190Z,16.23
2018-04-10T08:26:14.828Z,17.87
2018-04-10T08:28:42.446Z,13.00
2018-04-10T08:31:10.135Z,13.90
2018-04-10T08:33:37.802Z,14.33
2018-04-10T08:36:05.459Z,12.97
2018-04-10T08:38:33.102Z,13.77
2018-04-10T08:41:00.843Z,13.67
2018-04-10T08:43:28.487Z,12.87
2018-04-10T08:45:56.150Z,13.40
2018-04-10T08:48:23.764Z,13.17
2018-04-10T08:50:51.443Z,12.50
2018-04-10T08:53:19.076Z,16.93
2018-04-10T08:55:46.727Z,12.87
2018-04-10T08:58:14.358Z,15.67
2018-04-10T09:00:42.013Z,15.40
2018-04-10T09:03:09.640Z,14.77
2018-04-10T09:05:37.382Z,13.80
2018-04-10T09:08:05.024Z,13.17
2018-04-10T09:10:32.702Z,12.60
2018-04-10T09:13:00.330Z,14.50
2018-04-10T09:15:28.007Z,14.53
2018-04-10T09:17:55.627Z,13.60
2018-04-10T09:20:23.298Z,15.60
2018-04-10T09:22:50.956Z,13.30
2018-04-10T09:25:18.614Z,12.90
2018-04-10T09:27:46.247Z,13.80
2018-04-10T09:30:13.905Z,14.03
2018-04-10T09:32:41.598Z,13.47
2018-04-10T09:35:09.321Z,11.90
2018-04-10T09:37:36.947Z,13.07
2018-04-10T09:40:04.632Z,14.17
2018-04-10T09:42:32.270Z,13.10
2018-04-10T09:45:00.088Z,11.40
2018-04-10T09:47:27.759Z,12.30
2018-04-10T09:49:55.438Z,10.77
2018-04-10T09:52:23.064Z,9.83
2018-04-10T09:54:50.778Z,10.67
2018-04-10T09:57:18.382Z,9.60
2018-04-10T09:59:46.066Z,9.40
2018-04-10T10:02:13.667Z,9.00
2018-04-10T10:04:41.342Z,9.20
2018-04-10T10:07:08.951Z,8.90
2018-04-10T10:09:36.606Z,8.63
2018-04-10T10:12:04.221Z,6.90
2018-04-10T10:14:31.871Z,8.30
2018-04-10T10:16:59.498Z,6.47
2018-04-10T10:19:27.158Z,6.70
2018-04-10T10:21:54.822Z,5.33
2018-04-10T10:24:22.480Z,5.67
2018-04-10T10:26:50.130Z,6.03
2018-04-10T10:29:17.732Z,4.80
2018-04-10T10:31:45.412Z,4.73
2018-04-10T10:34:13.028Z,3.80
2018-04-10T10:36:40.790Z,2.27
2018-04-10T10:39:08.474Z,1.83
2018-04-10T10:41:36.111Z,2.80
2018-04-10T10:44:03.720Z,2.10
2018-04-10T10:46:31.359Z,1.80
2018-04-10T10:48:58.968Z,4.00
2018-04-10T10:51:26.633Z,2.33
2018-04-10T10:53:54.322Z,3.20
2018-04-10T10:56:21.992Z,2.80
2018-04-10T10:58:49.611Z,2.43
2018-04-10T11:01:17.260Z,2.27
2018-04-10T11:03:44.911Z,2.43
2018-04-10T11:06:12.654Z,1.90
2018-04-10T11:08:40.266Z,1.53
2018-04-10T11:11:07.910Z,1.73
2018-04-10T11:13:35.522Z,1.50
2018-04-10T11:16:03.202Z,5.87
2018-04-10T11:18:30.832Z,1.30
2018-04-10T11:20:58.495Z,2.53
2018-04-10T11:23:26.152Z,4.00
2018-04-10T11:25:53.798Z,2.77
2018-04-10T11:28:21.402Z,2.50
2018-04-10T11:30:49.103Z,1.80
2018-04-10T11:33:16.727Z,2.87
2018-04-10T11:35:44.394Z,4.20
2018-04-10T11:38:12.006Z,2.80
2018-04-10T11:40:39.652Z,1.60
2018-04-10T11:43:07.306Z,3.10
2018-04-10T11:45:35.008Z,1.40
2018-04-10T11:48:02.614Z,1.70
2018-04-10T11:50:30.274Z,2.80
2018-04-10T11:52:57.910Z,1.90
2018-04-10T11:55:25.583Z,2.90
2018-04-10T11:57:53.209Z,1.53
2018-04-10T12:00:20.870Z,1.43
2018-04-10T12:02:48.478Z,1.83
2018-04-10T12:05:16.143Z,1.33
2018-04-10T12:07:43.754Z,2.00
2018-04-10T12:10:11.459Z,1.37
2018-04-10T12:12:39.074Z,1.40
2018-04-10T12:15:06.728Z,1.30
2018-04-10T12:17:34.343Z,2.27
2018-04-10T12:20:01.995Z,1.40
2018-04-10T12:22:29.623Z,2.10
2018-04-10T12:24:57.303Z,2.17
2018-04-10T12:27:24.923Z,2.30
2018-04-10T12:29:52.525Z,2.67
2018-04-10T12:32:20.249Z,2.83
2018-04-10T12:34:47.882Z,1.80
2018-04-10T12:37:15.534Z,1.73
2018-04-10T12:39:43.134Z,1.70
2018-04-10T12:42:10.782Z,1.53
2018-04-10T12:44:38.404Z,2.93
2018-04-10T12:47:06.090Z,1.30
2018-04-10T12:49:33.695Z,1.80
2018-04-10T12:52:01.348Z,1.73
2018-04-10T12:54:28.954Z,3.30
2018-04-10T12:56:56.612Z,1.67
2018-04-10T12:59:24.253Z,2.40
2018-04-10T13:01:51.917Z,3.77
2018-04-10T13:04:19.533Z,3.53
2018-04-10T13:06:47.182Z,3.60
2018-04-10T13:09:14.781Z,3.83
2018-04-10T13:11:42.431Z,2.47
2018-04-10T13:14:10.043Z,2.53
2018-04-10T13:16:37.732Z,2.03
2018-04-10T13:19:05.368Z,1.97
2018-04-10T13:21:33.030Z,2.67
2018-04-10T13:24:00.655Z,1.63
2018-04-10T13:26:28.314Z,2.37
2018-04-10T13:28:55.944Z,1.60
2018-04-10T13:31:23.641Z,3.17
2018-04-10T13:33:51.341Z,1.90
2018-04-10T13:36:19.107Z,3.37
2018-04-10T13:38:46.931Z,6.83
2018-04-10T13:41:15.409Z,4.27
2018-04-10T13:43:43.071Z,4.30
2018-04-10T13:46:10.807Z,2.13
2018-04-10T13:48:38.502Z,1.63
2018-04-10T13:51:06.365Z,1.40
2018-04-10T13:53:34.078Z,1.60
2018-04-10T13:56:01.738Z,1.80
2018-04-10T13:58:29.454Z,1.67
2018-04-10T14:00:57.158Z,2.83
2018-04-10T14:03:24.766Z,2.30
2018-04-10T14:05:52.410Z,2.23
2018-04-10T14:08:20.058Z,1.40
2018-04-10T14:10:47.702Z,5.00
2018-04-10T14:13:15.310Z,2.43
2018-04-10T14:15:42.954Z,2.07
2018-04-10T14:18:10.556Z,2.20
2018-04-10T14:20:38.191Z,1.70
2018-04-10T14:23:05.798Z,2.40
2018-04-10T14:25:33.488Z,1.77
2018-04-10T14:28:01.143Z,2.00
2018-04-10T14:30:28.827Z,1.63
2018-04-10T14:32:56.460Z,1.33
2018-04-10T14:35:24.153Z,3.50
2018-04-10T14:37:51.767Z,5.97
2018-04-10T14:40:19.418Z,2.07
2018-04-10T14:42:47.105Z,2.10
2018-04-10T14:45:14.723Z,1.80
2018-04-10T14:47:42.387Z,3.00
2018-04-10T14:50:10.002Z,2.10
2018-04-10T14:52:37.694Z,1.70
2018-04-10T14:55:05.323Z,4.17
2018-04-10T14:57:33.021Z,2.23
2018-04-10T15:00:00.662Z,2.40
2018-04-10T15:02:28.353Z,2.10
2018-04-10T15:04:55.972Z,2.20
2018-04-10T15:07:23.629Z,3.23
2018-04-10T15:09:51.235Z,2.97
2018-04-10T15:14:01.264Z,2.12
2018-04-10T15:16:29.073Z,3.10
2018-04-10T15:18:56.737Z,1.90
2018-04-10T15:21:24.539Z,3.07
2018-04-10T15:23:52.268Z,1.83
2018-04-10T15:26:20.073Z,4.60
2018-04-10T15:28:47.678Z,2.07
2018-04-10T15:31:15.974Z,2.03
2018-04-10T15:33:43.723Z,1.67
2018-04-10T15:36:11.605Z,3.78
2018-04-10T15:38:39.408Z,3.03
2018-04-10T15:41:07.224Z,3.00
2018-04-10T15:43:35.100Z,3.60
2018-04-10T15:46:02.859Z,2.80
2018-04-10T15:48:30.530Z,1.77
2018-04-10T15:50:58.286Z,3.33
2018-04-10T15:53:26.051Z,2.30
2018-04-10T15:55:53.816Z,2.17
2018-04-10T15:58:21.481Z,2.80
2018-04-10T16:00:49.078Z,2.10
2018-04-10T16:03:16.906Z,2.67
2018-04-10T16:05:44.673Z,5.50
2018-04-10T16:08:12.536Z,3.10
2018-04-10T16:10:40.300Z,2.00
2018-04-10T16:13:08.168Z,2.40
2018-04-10T16:15:35.784Z,2.90
2018-04-10T16:18:03.440Z,2.50
2018-04-10T16:20:31.149Z,3.90
2018-04-10T16:22:58.919Z,1.83
2018-04-10T16:25:26.627Z,2.83
2018-04-10T16:27:54.455Z,1.90
2018-04-10T16:30:22.215Z,2.63
2018-04-10T16:32:49.875Z,3.00
2018-04-10T16:35:17.740Z,2.40
2018-04-10T16:37:45.462Z,2.10
2018-04-10T16:40:13.196Z,2.33
2018-04-10T16:42:40.829Z,2.20
2018-04-10T16:45:08.637Z,2.30
2018-04-10T16:47:36.461Z,2.50
2018-04-10T16:50:04.222Z,4.90
2018-04-10T16:52:31.944Z,8.13
2018-04-10T16:54:59.666Z,2.77
2018-04-10T16:57:27.415Z,3.30
2018-04-10T16:59:55.173Z,1.87
2018-04-10T17:02:23.150Z,2.73
2018-04-10T17:04:51.019Z,2.90
2018-04-10T17:07:18.739Z,2.50
2018-04-10T17:09:46.647Z,8.50
2018-04-10T17:12:14.451Z,1.93
2018-04-10T17:14:42.337Z,1.60
2018-04-10T17:17:10.043Z,2.07
2018-04-10T17:19:37.874Z,2.10
2018-04-10T17:22:05.572Z,3.63
2018-04-10T17:24:33.235Z,2.30
2018-04-10T17:27:00.947Z,3.83
2018-04-10T17:29:28.770Z,1.60
2018-04-10T17:31:56.740Z,2.80
2018-04-10T17:34:24.394Z,1.43
2018-04-10T17:36:52.051Z,2.30
2018-04-10T17:39:19.716Z,2.70
2018-04-10T17:41:47.686Z,2.00
2018-04-10T17:44:15.414Z,2.13
2018-04-10T17:46:43.755Z,1.40
2018-04-10T17:49:11.480Z,3.40
2018-04-10T17:51:39.258Z,4.00
2018-04-10T17:54:07.129Z,3.03
2018-04-10T17:56:34.890Z,1.43
2018-04-10T17:59:02.613Z,2.20
2018-04-10T18:01:30.425Z,1.97
2018-04-10T18:03:58.591Z,1.90
2018-04-10T18:06:26.460Z,3.03
2018-04-10T18:08:54.222Z,1.67
2018-04-10T18:11:22.089Z,2.87
2018-04-10T18:13:49.977Z,2.03
2018-04-10T18:16:17.803Z,2.53
2018-04-10T18:18:45.692Z,1.80
2018-04-10T18:21:13.561Z,3.83
2018-04-10T18:23:41.219Z,3.00
2018-04-10T18:26:09.086Z,1.70
2018-04-10T18:28:36.950Z,1.77
2018-04-10T18:31:04.611Z,1.93
2018-04-10T18:33:32.585Z,1.40
2018-04-10T18:36:00.465Z,1.67
2018-04-10T18:38:28.217Z,2.53
2018-04-10T18:40:55.982Z,2.07
2018-04-10T18:43:23.660Z,2.23
2018-04-10T18:45:51.299Z,3.37
2018-04-10T18:48:18.965Z,2.43
2018-04-10T18:50:46.807Z,1.57
2018-04-10T18:53:14.599Z,2.60
2018-04-10T18:55:44.706Z,3.83
2018-04-10T18:58:12.659Z,0.83
2018-04-10T19:00:40.454Z,1.00
2018-04-10T19:03:08.268Z,1.77
2018-04-10T19:05:36.185Z,1.30
2018-04-10T19:08:04.052Z,1.23
2018-04-10T19:10:31.766Z,1.10
2018-04-10T19:12:59.581Z,2.63
2018-04-10T19:15:27.244Z,0.93
2018-04-10T19:17:54.903Z,0.93
2018-04-10T19:20:22.565Z,1.53
2018-04-10T19:22:50.433Z,1.20
2018-04-10T19:25:18.198Z,2.50
2018-04-10T19:27:45.902Z,2.50
2018-04-10T19:30:13.830Z,2.30
2018-04-10T19:32:41.482Z,1.00
2018-04-10T19:35:11.061Z,1.13
2018-04-10T19:37:39.249Z,2.33
2018-04-10T19:40:10.247Z,2.53
2018-04-10T19:42:37.976Z,1.10
2018-04-10T19:45:06.787Z,0.90
2018-04-10T19:47:34.523Z,1.40
2018-04-10T19:50:02.258Z,1.27
2018-04-10T19:52:30.052Z,0.70
2018-04-10T19:54:57.951Z,1.73
2018-04-10T19:57:26.202Z,1.23
2018-04-10T19:59:54.068Z,1.33
2018-04-10T20:02:23.122Z,1.30
2018-04-10T20:04:51.350Z,2.77
2018-04-10T20:07:20.464Z,1.53
2018-04-10T20:09:49.502Z,1.37
2018-04-10T20:12:18.328Z,1.67
2018-04-10T20:14:47.314Z,1.00
2018-04-10T20:17:15.177Z,1.10
2018-04-10T20:19:43.149Z,2.60
2018-04-10T20:22:11.962Z,1.97
2018-04-10T20:24:39.817Z,1.43
2018-04-10T20:27:07.596Z,3.63
2018-04-10T20:29:35.425Z,1.63
2018-04-10T20:32:03.403Z,2.70
2018-04-10T20:34:31.131Z,3.40
2018-04-10T20:36:59.968Z,1.67
2018-04-10T20:39:27.833Z,5.77
2018-04-10T20:41:55.697Z,2.40
2018-04-10T20:44:23.560Z,3.13
2018-04-10T20:46:51.320Z,3.50
2018-04-10T20:49:19.189Z,2.80
2018-04-10T20:51:47.358Z,2.47
2018-04-10T20:54:15.127Z,3.17
2018-04-10T20:56:42.775Z,1.97
2018-04-10T20:59:10.452Z,6.13
2018-04-10T21:01:38.216Z,1.73
2018-04-10T21:04:06.786Z,2.37
2018-04-10T21:06:34.688Z,3.40
2018-04-10T21:09:02.439Z,3.23
2018-04-10T21:11:30.414Z,3.27
2018-04-10T21:13:58.042Z,3.60
2018-04-10T21:16:25.717Z,2.70
2018-04-10T21:18:53.318Z,3.00
2018-04-10T21:21:20.939Z,2.10
2018-04-10T21:23:48.610Z,2.20
2018-04-10T21:26:16.230Z,2.70
2018-04-10T21:28:43.871Z,2.20
2018-04-10T21:31:11.722Z,2.30
2018-04-10T21:33:39.384Z,4.00
2018-04-10T21:36:06.998Z,2.90
2018-04-10T21:38:34.639Z,2.20
2018-04-10T21:41:02.270Z,2.50
2018-04-10T21:43:30.799Z,2.43
2018-04-10T21:45:58.418Z,3.60
2018-04-10T21:48:26.633Z,2.23
2018-04-10T21:50:54.290Z,2.03
2018-04-10T21:53:21.970Z,2.27
2018-04-10T21:55:49.588Z,2.10
2018-04-10T21:58:17.229Z,2.30
2018-04-10T22:00:44.878Z,2.70
2018-04-10T22:03:12.532Z,2.10
2018-04-10T22:05:40.138Z,1.93
2018-04-10T22:08:07.786Z,2.37
2018-04-10T22:10:35.398Z,1.93
2018-04-10T22:13:03.061Z,2.30
2018-04-10T22:15:30.691Z,3.07
2018-04-10T22:17:58.316Z,3.20
2018-04-10T22:20:25.970Z,2.20
2018-04-10T22:22:53.582Z,4.23
2018-04-10T22:25:21.229Z,2.80
2018-04-10T22:27:48.838Z,3.00
2018-04-10T22:30:16.510Z,3.57
2018-04-10T22:32:44.191Z,3.47
2018-04-10T22:35:11.905Z,2.13
2018-04-10T22:37:39.566Z,2.43
2018-04-10T22:40:07.330Z,2.50
2018-04-10T22:42:35.064Z,3.07
2018-04-10T22:45:02.857Z,2.80
2018-04-10T22:47:30.527Z,2.47
2018-04-10T22:49:58.388Z,2.40
2018-04-10T22:52:26.150Z,4.17
2018-04-10T22:54:53.918Z,2.33
2018-04-10T22:57:21.576Z,2.97
2018-04-10T22:59:49.447Z,3.10
2018-04-10T23:02:17.213Z,3.17
2018-04-10T23:04:44.884Z,2.77
2018-04-10T23:07:12.647Z,4.20
2018-04-10T23:09:40.378Z,3.47
2018-04-10T23:12:08.287Z,3.43
2018-04-10T23:14:36.028Z,4.70
2018-04-10T23:17:03.928Z,2.20
2018-04-10T23:19:31.591Z,5.10
2018-04-10T23:21:59.562Z,3.20
2018-04-10T23:24:27.226Z,2.67
2018-04-10T23:26:55.095Z,3.03
2018-04-10T23:29:22.823Z,2.63
2018-04-10T23:31:50.628Z,2.60
2018-04-10T23:34:18.396Z,2.93
2018-04-10T23:36:46.265Z,2.30
2018-04-10T23:39:14.006Z,2.37
2018-04-10T23:41:41.895Z,1.93
2018-04-10T23:44:09.552Z,3.57
2018-04-10T23:46:37.321Z,2.23
2018-04-10T23:49:05.089Z,2.83
2018-04-10T23:51:32.851Z,3.57
2018-04-10T23:54:00.623Z,3.37
2018-04-10T23:56:28.384Z,2.43
2018-04-10T23:58:56.103Z,4.50
